Time;durP1;ratioP1;P1;durP2;ratioP2;P2;SDS_P1;SDS_P2;PMS_P1;PMS_P2;Temp;Humidity;BMP_temperature;BMP_pressure;BME280_temperature;BME280_humidity;BME280_pressure;Samples;Min_cycle;Max_cycle;Signal;HPM_P1;HPM_P2
2022/08/14 00:00:45;;;;;;;13.27;10.15;;;;;;;16.34;80.81;98476.38;4187510;28;20088;-71
2022/08/14 00:02:46;;;;;;;14.45;10.75;;;;;;;16.33;80.36;98471.22;4187506;28;20048;-71
2022/08/14 00:04:46;;;;;;;13.75;9.77;;;;;;;16.33;80.12;98476.78;4186339;28;20076;-71
2022/08/14 00:06:47;;;;;;;10.57;9.32;;;;;;;16.27;80.75;98474.44;4187430;28;20040;-71
2022/08/14 00:08:47;;;;;;;13.45;9.77;;;;;;;16.25;80.71;98470.50;4187627;28;20043;-71
2022/08/14 00:10:48;;;;;;;11.23;9.40;;;;;;;16.21;80.63;98475.31;4186620;28;20115;-71
2022/08/14 00:12:53;;;;;;;16.38;10.32;;;;;;;16.19;80.44;98472.16;4185951;28;20049;-71
2022/08/14 00:14:54;;;;;;;10.65;8.95;;;;;;;16.16;80.45;98473.78;4186527;28;20052;-71
2022/08/14 00:16:54;;;;;;;14.25;10.52;;;;;;;16.14;80.69;98473.41;4187761;28;20358;-71
2022/08/14 00:18:54;;;;;;;16.50;8.68;;;;;;;16.11;80.57;98471.44;4185492;28;20064;-71
2022/08/14 00:20:56;;;;;;;12.02;9.85;;;;;;;16.04;81.42;98474.28;4186993;28;20042;-71
2022/08/14 00:22:58;;;;;;;13.10;10.73;;;;;;;16.00;81.21;98474.34;4186670;28;20037;-71
2022/08/14 00:24:58;;;;;;;13.88;9.45;;;;;;;15.96;81.33;98468.00;4187761;28;20044;-71
2022/08/14 00:26:58;;;;;;;13.10;9.77;;;;;;;15.98;80.00;98467.59;4184504;28;20110;-71
2022/08/14 00:28:59;;;;;;;11.80;10.02;;;;;;;15.97;80.40;98455.66;4186876;28;20035;-71
2022/08/14 00:31:00;;;;;;;12.15;9.98;;;;;;;15.99;79.43;98464.41;4187760;28;20036;-71
2022/08/14 00:33:01;;;;;;;14.98;9.98;;;;;;;16.03;78.82;98467.13;4186422;28;20175;-71
2022/08/14 00:35:04;;;;;;;14.88;10.55;;;;;;;15.97;79.44;98463.22;4186329;28;20095;-71
2022/08/14 00:37:04;;;;;;;11.55;9.85;;;;;;;15.89;79.78;98447.78;4187271;28;20040;-71
2022/08/14 00:39:05;;;;;;;13.60;10.38;;;;;;;15.86;80.09;98454.94;4187281;28;20047;-71
2022/08/14 00:41:07;;;;;;;11.65;9.85;;;;;;;15.81;80.13;98457.41;4186628;28;20047;-71
2022/08/14 00:43:08;;;;;;;12.95;9.52;;;;;;;15.80;80.25;98450.22;4187104;28;20060;-71
2022/08/14 00:45:11;;;;;;;15.38;10.15;;;;;;;15.76;80.82;98452.28;4187238;28;20443;-71
2022/08/14 00:47:14;;;;;;;12.15;9.40;;;;;;;15.70;80.67;98457.50;4186822;28;20049;-71
2022/08/14 00:49:14;;;;;;;12.07;10.32;;;;;;;15.69;80.34;98448.34;4185440;28;20053;-71
2022/08/14 00:51:15;;;;;;;13.13;9.00;;;;;;;15.65;80.23;98441.22;4185666;28;20045;-72
2022/08/14 00:53:16;;;;;;;13.25;10.27;;;;;;;15.66;80.64;98438.03;4185871;28;20117;-71
2022/08/14 00:55:18;;;;;;;11.18;9.98;;;;;;;15.69;79.90;98442.75;4186574;28;20048;-71
2022/08/14 00:57:19;;;;;;;;;;;;;;;15.75;80.14;98436.75;4186489;28;20083;-71
2022/08/14 00:59:22;;;;;;;13.15;10.10;;;;;;;15.82;79.77;98439.47;4187024;28;19917;-71
2022/08/14 01:01:22;;;;;;;15.43;10.23;;;;;;;15.89;79.03;98436.63;4186047;28;20139;-71
2022/08/14 01:03:24;;;;;;;14.25;10.35;;;;;;;15.93;78.89;98440.94;4185892;28;20334;-71
2022/08/14 01:05:25;;;;;;;11.32;10.05;;;;;;;15.82;80.11;98442.25;4185971;28;20388;-71
2022/08/14 01:07:28;;;;;;;13.98;10.23;;;;;;;15.61;80.84;98446.81;4184818;28;20465;-71
2022/08/14 01:09:29;;;;;;;15.55;11.85;;;;;;;15.50;80.88;98439.75;4185609;28;20106;-71
2022/08/14 01:11:30;;;;;;;11.27;9.63;;;;;;;15.37;81.03;98433.88;4187140;28;20485;-71
2022/08/14 01:13:35;;;;;;;12.77;9.73;;;;;;;15.31;81.20;98432.75;4187028;28;20047;-71
2022/08/14 01:15:35;;;;;;;13.35;10.88;;;;;;;15.26;81.72;98433.16;4186223;28;20040;-71
2022/08/14 01:22:14;;;;;;;13.15;9.77;;;;;;;15.25;79.86;98426.00;4184975;28;20040;-71
2022/08/14 01:24:14;;;;;;;13.77;10.57;;;;;;;15.24;80.40;98424.44;4186262;28;20029;-71
2022/08/14 01:26:19;;;;;;;12.65;10.23;;;;;;;15.21;81.58;98430.81;4186563;28;20028;-71
2022/08/14 01:28:21;;;;;;;13.25;10.38;;;;;;;15.22;79.87;98426.81;4184445;28;20025;-71
2022/08/14 01:30:22;;;;;;;16.08;10.55;;;;;;;15.18;81.15;98418.50;4186491;28;20115;-71
2022/08/14 01:32:23;;;;;;;14.10;10.25;;;;;;;15.18;81.87;98429.66;4184629;28;20229;-71
2022/08/14 01:34:25;;;;;;;12.57;10.93;;;;;;;15.23;80.38;98425.63;4185584;28;20123;-71
2022/08/14 01:36:27;;;;;;;11.10;9.63;;;;;;;15.24;80.61;98422.44;4185961;28;20043;-71
2022/08/14 01:38:33;;;;;;;13.05;10.02;;;;;;;15.22;80.54;98410.88;4184236;28;20126;-71
2022/08/14 01:40:33;;;;;;;12.38;9.82;;;;;;;15.22;80.09;98416.47;4184955;28;20040;-71
2022/08/14 01:42:33;;;;;;;14.13;10.30;;;;;;;15.21;80.36;98416.88;4186646;28;20120;-71
2022/08/14 01:44:35;;;;;;;14.23;10.02;;;;;;;15.18;80.76;98413.72;4185257;28;20048;-71
2022/08/14 01:46:37;;;;;;;11.48;9.68;;;;;;;15.15;82.10;98411.75;4185463;28;20041;-71
2022/08/14 01:48:39;;;;;;;11.85;9.63;;;;;;;15.10;82.28;98420.53;4185318;28;20032;-71
2022/08/14 01:50:41;;;;;;;10.98;9.30;;;;;;;15.01;83.44;98414.63;4183961;28;20375;-71
2022/08/14 01:52:42;;;;;;;11.63;9.52;;;;;;;14.93;83.55;98407.53;4184700;28;20974;-71
2022/08/14 01:54:43;;;;;;;13.40;9.73;;;;;;;14.85;83.87;98412.38;4185658;28;20481;-71
2022/08/14 01:56:43;;;;;;;13.38;10.25;;;;;;;14.84;83.47;98405.22;4185700;28;20048;-71
2022/08/14 01:58:48;;;;;;;16.38;10.80;;;;;;;14.80;84.31;98403.63;4184766;28;20387;-71
2022/08/14 02:00:53;;;;;;;11.30;9.90;;;;;;;14.77;84.37;98401.69;4186437;28;20053;-71
2022/08/14 02:02:55;;;;;;;11.38;9.48;;;;;;;14.73;84.66;98393.34;4185825;28;20048;-71
2022/08/14 02:04:56;;;;;;;;;;;;;;;14.64;84.22;98400.56;4185701;28;20040;-71
2022/08/14 02:06:56;;;;;;;14.98;10.18;;;;;;;14.59;84.21;98394.22;4185469;28;19912;-71
2022/08/14 02:08:57;;;;;;;13.07;10.10;;;;;;;14.57;84.56;98393.06;4185348;28;20040;-71
2022/08/14 02:11:20;;;;;;;13.40;10.48;;;;;;;14.53;85.82;98400.63;4185228;28;20396;-71
2022/08/14 02:13:21;;;;;;;16.27;10.90;;;;;;;14.50;85.88;98396.66;4184963;28;20366;-71
2022/08/14 02:15:22;;;;;;;13.13;11.23;;;;;;;14.50;85.94;98393.09;4185728;28;20125;-71
2022/08/14 02:17:22;;;;;;;15.75;12.02;;;;;;;14.44;87.28;98400.25;4185278;28;20098;-71
2022/08/14 02:19:28;;;;;;;13.23;10.90;;;;;;;14.43;87.09;98391.09;4184692;28;20051;-71
2022/08/14 02:21:31;;;;;;;12.55;10.70;;;;;;;14.41;87.22;98390.72;4185639;28;20123;-71
2022/08/14 02:23:32;;;;;;;12.73;10.00;;;;;;;14.42;86.78;98397.09;4185302;28;20106;-71
2022/08/14 02:25:32;;;;;;;14.05;10.63;;;;;;;14.42;87.41;98391.53;4185052;28;20048;-71
2022/08/14 02:27:33;;;;;;;14.07;11.18;;;;;;;14.39;87.55;98390.31;4185615;28;20064;-71
2022/08/14 02:29:33;;;;;;;14.73;11.30;;;;;;;14.36;88.46;98391.13;4183942;28;20044;-71
2022/08/14 02:31:36;;;;;;;13.88;10.95;;;;;;;14.37;88.16;98391.94;4185646;28;20039;-71
2022/08/14 02:33:36;;;;;;;15.38;11.40;;;;;;;14.35;88.28;98392.34;4184253;28;20722;-71
2022/08/14 02:35:40;;;;;;;14.52;11.10;;;;;;;14.34;88.23;98387.97;4185458;28;20081;-71
2022/08/14 02:37:41;;;;;;;17.05;11.73;;;;;;;14.30;88.59;98379.63;4184617;28;20048;-71
2022/08/14 02:39:44;;;;;;;13.80;11.68;;;;;;;14.29;88.86;98368.91;4185455;28;20037;-71
2022/08/14 02:41:50;;;;;;;16.80;11.55;;;;;;;14.27;88.31;98380.44;4184908;28;20443;-71
2022/08/14 02:43:50;;;;;;;13.48;10.77;;;;;;;14.27;86.79;98374.88;4185212;28;20044;-71
2022/08/14 02:45:51;;;;;;;12.85;10.45;;;;;;;14.29;86.59;98385.59;4185912;28;20055;-71
2022/08/14 02:47:51;;;;;;;15.05;11.43;;;;;;;14.28;86.28;98378.47;4183998;28;20226;-71
2022/08/14 02:49:53;;;;;;;14.63;11.68;;;;;;;14.28;87.02;98384.03;4185103;28;20503;-71
2022/08/14 02:51:55;;;;;;;15.05;10.90;;;;;;;14.30;85.69;98385.19;4183327;28;20059;-71
2022/08/14 02:53:57;;;;;;;13.50;11.02;;;;;;;14.27;85.77;98365.75;4184742;28;20114;-71
2022/08/14 02:55:58;;;;;;;16.15;12.23;;;;;;;14.21;86.47;98362.59;4185081;28;20443;-71
2022/08/14 02:57:59;;;;;;;18.08;11.07;;;;;;;14.19;86.09;98372.53;4183429;28;20102;-71
2022/08/14 03:00:01;;;;;;;14.32;11.20;;;;;;;14.22;85.53;98371.72;4184251;28;20037;-71
2022/08/14 03:02:02;;;;;;;15.20;10.13;;;;;;;14.28;84.62;98367.31;4181508;28;20465;-71
2022/08/14 03:04:04;;;;;;;11.07;9.90;;;;;;;14.34;83.53;98374.06;4184110;28;20034;-71
2022/08/14 03:06:07;;;;;;;13.60;10.50;;;;;;;14.33;83.54;98376.06;4183624;28;20504;-71
2022/08/14 03:08:12;;;;;;;15.10;11.27;;;;;;;14.32;82.92;98371.69;4185042;28;20037;-71
2022/08/14 03:10:13;;;;;;;13.63;10.68;;;;;;;14.27;82.65;98363.75;4184551;28;20043;-71
2022/08/14 03:12:13;;;;;;;14.10;10.63;;;;;;;14.24;83.32;98372.91;4183949;28;20151;-71
2022/08/14 03:14:14;;;;;;;15.35;11.07;;;;;;;14.21;82.64;98368.16;4183643;28;20029;-71
2022/08/14 03:16:17;;;;;;;14.45;10.73;;;;;;;14.19;82.90;98370.56;4184572;28;20029;-71
2022/08/14 03:18:18;;;;;;;14.00;10.38;;;;;;;14.20;82.27;98379.69;4184169;28;20028;-71
2022/08/14 03:20:20;;;;;;;11.90;10.02;;;;;;;14.24;82.40;98374.91;4185067;28;20115;-71
2022/08/14 03:22:20;;;;;;;14.15;10.52;;;;;;;14.27;82.53;98374.88;4184376;28;20129;-71
2022/08/14 03:24:21;;;;;;;15.00;10.98;;;;;;;14.22;82.72;98374.50;4185488;28;20125;-71
2022/08/14 03:26:26;;;;;;;16.83;10.10;;;;;;;14.26;81.11;98364.16;4185090;28;20051;-71
2022/08/14 03:28:28;;;;;;;19.15;11.73;;;;;;;14.24;83.82;98355.44;4182735;28;20053;-71
2022/08/14 03:30:30;;;;;;;13.05;10.50;;;;;;;14.15;83.92;98350.31;4185657;28;20048;-71
2022/08/14 03:32:32;;;;;;;18.48;12.35;;;;;;;14.10;83.69;98347.16;4183336;28;20106;-71
2022/08/14 03:34:32;;;;;;;15.35;11.13;;;;;;;14.02;83.80;98349.97;4185291;28;20434;-71
2022/08/14 03:36:33;;;;;;;12.98;11.40;;;;;;;13.98;84.81;98351.16;4185650;28;20055;-71
2022/08/14 03:38:33;;;;;;;12.40;10.32;;;;;;;13.98;84.97;98353.94;4184049;28;20045;-71
2022/08/14 03:40:33;;;;;;;19.30;11.93;;;;;;;13.90;85.83;98347.63;4184451;28;20477;-71
2022/08/14 03:42:35;;;;;;;14.52;10.82;;;;;;;13.86;86.82;98348.84;4184812;28;20085;-71
2022/08/14 03:44:37;;;;;;;16.33;10.60;;;;;;;13.87;84.59;98340.09;4184447;28;20128;-71
2022/08/14 03:46:38;;;;;;;15.18;10.90;;;;;;;13.91;84.28;98334.53;4184574;28;20441;-71
2022/08/14 03:48:40;;;;;;;17.92;12.50;;;;;;;13.95;84.91;98341.63;4183863;28;20080;-71
2022/08/14 03:50:43;;;;;;;14.80;11.55;;;;;;;13.94;86.17;98330.94;4184188;28;20531;-71
2022/08/14 03:52:44;;;;;;;;;;;;;;;13.90;86.48;98336.50;4184733;28;20060;-71
2022/08/14 03:54:45;;;;;;;16.45;12.30;;;;;;;13.85;87.22;98331.34;4183812;28;20340;-71
2022/08/14 03:56:45;;;;;;;23.05;12.95;;;;;;;13.83;88.23;98324.63;4183775;28;20367;-71
2022/08/14 03:58:55;;;;;;;19.30;12.82;;;;;;;13.83;87.57;98317.06;4184884;28;20069;-71
2022/08/14 04:00:55;;;;;;;19.95;13.38;;;;;;;13.86;88.23;98316.25;4184084;28;20299;-71
2022/08/14 04:02:55;;;;;;;19.48;14.65;;;;;;;13.92;88.28;98311.88;4181078;28;20469;-71
2022/08/14 04:04:56;;;;;;;19.20;14.50;;;;;;;13.96;87.43;98311.84;4183445;28;20768;-71
2022/08/14 04:06:58;;;;;;;17.88;12.68;;;;;;;13.92;88.18;98323.00;4183134;28;20032;-71
2022/08/14 04:08:58;;;;;;;17.92;12.60;;;;;;;13.86;88.43;98324.59;4181291;28;20461;-71
2022/08/14 04:10:59;;;;;;;13.75;11.65;;;;;;;13.81;88.64;98327.00;4183535;28;20133;-71
2022/08/14 04:13:04;;;;;;;15.95;13.00;;;;;;;13.76;88.32;98319.88;4184312;28;20070;-71
2022/08/14 04:15:05;;;;;;;40.03;19.95;;;;;;;13.63;89.50;98316.72;4183888;28;20053;-71
2022/08/14 04:17:05;;;;;;;31.52;18.15;;;;;;;13.52;90.58;98321.53;4187777;28;20226;-71
2022/08/14 04:19:07;;;;;;;25.63;15.55;;;;;;;13.46;90.25;98312.03;4186866;28;20496;-71
2022/08/14 04:21:09;;;;;;;24.17;15.82;;;;;;;13.50;88.81;98318.38;4187838;28;20048;-71
2022/08/14 04:23:09;;;;;;;28.93;15.47;;;;;;;13.47;89.46;98319.94;4187291;28;20381;-71
2022/08/14 04:25:09;;;;;;;18.10;12.95;;;;;;;13.45;89.92;98318.78;4187513;28;20436;-71
2022/08/14 04:27:10;;;;;;;20.20;13.70;;;;;;;13.43;89.97;98319.19;4186398;28;20037;-71
2022/08/14 04:29:15;;;;;;;20.60;13.32;;;;;;;13.45;90.34;98302.91;4186702;28;20484;-71
2022/08/14 04:31:17;;;;;;;22.80;13.30;;;;;;;13.47;90.96;98308.84;4187492;28;20794;-71
2022/08/14 04:33:18;;;;;;;16.40;12.63;;;;;;;13.48;90.71;98306.84;4185386;28;20056;-71
2022/08/14 04:35:18;;;;;;;19.63;13.63;;;;;;;13.51;90.01;98311.63;4186374;28;20044;-71
2022/08/14 04:44:20;;;;;;;19.08;13.73;;;;;;;13.82;86.61;98301.59;4185541;28;20145;-71
2022/08/14 04:46:22;;;;;;;16.38;12.00;;;;;;;13.86;87.89;98298.78;4186340;28;20033;-71
2022/08/14 04:48:22;;;;;;;17.42;12.85;;;;;;;13.89;87.60;98298.75;4186320;28;20037;-71
2022/08/14 04:50:22;;;;;;;19.38;12.60;;;;;;;13.93;87.38;98293.97;4187104;28;20048;-71
2022/08/14 04:52:23;;;;;;;17.80;13.05;;;;;;;13.93;88.04;98287.63;4186769;28;20349;-71
2022/08/14 04:54:27;;;;;;;22.08;13.88;;;;;;;13.91;89.64;98281.69;4186038;28;20044;-71
2022/08/14 04:56:27;;;;;;;19.35;11.48;;;;;;;13.92;90.11;98286.03;4186834;28;20040;-71
2022/08/14 04:58:31;;;;;;;21.90;12.75;;;;;;;13.93;90.01;98291.19;4185638;28;20048;-71
2022/08/14 05:00:32;;;;;;;27.25;17.23;;;;;;;13.96;90.28;98290.38;4185796;28;20059;-71
2022/08/14 05:02:33;;;;;;;22.40;15.55;;;;;;;14.00;90.67;98293.16;4186242;28;20040;-71
2022/08/14 05:04:33;;;;;;;24.65;16.25;;;;;;;14.01;91.26;98287.19;4183884;28;20044;-71
2022/08/14 05:06:34;;;;;;;21.77;13.63;;;;;;;14.09;89.59;98293.50;4186656;28;20048;-71
2022/08/14 05:08:34;;;;;;;17.50;13.07;;;;;;;14.19;88.45;98287.06;4186162;28;20227;-71
2022/08/14 05:10:36;;;;;;;22.83;12.85;;;;;;;14.28;87.10;98294.97;4186785;28;20512;-71
2022/08/14 05:12:37;;;;;;;15.98;12.77;;;;;;;14.42;85.09;98294.88;4185460;28;20430;-71
2022/08/14 05:14:37;;;;;;;19.48;12.90;;;;;;;14.54;84.75;98296.41;4185374;28;20040;-71
2022/08/14 05:16:37;;;;;;;16.95;13.07;;;;;;;14.63;85.82;98307.09;4186353;28;20323;-71
2022/08/14 05:18:38;;;;;;;16.65;13.10;;;;;;;14.70;86.35;98293.91;4184125;28;20051;-71
2022/08/14 05:20:44;;;;;;;21.42;13.65;;;;;;;14.74;87.02;98282.75;4185536;28;20230;-71
2022/08/14 05:22:44;;;;;;;16.48;13.93;;;;;;;14.82;86.06;98290.63;4185911;28;20072;-71
2022/08/14 05:24:50;;;;;;;20.55;13.93;;;;;;;14.85;86.38;98278.66;4186781;28;20076;-71
2022/08/14 05:26:51;;;;;;;22.45;13.65;;;;;;;14.95;85.97;98279.78;4185437;28;20040;-71
2022/08/14 05:28:51;;;;;;;17.90;13.50;;;;;;;14.98;86.06;98278.97;4185956;28;20687;-71
2022/08/14 05:30:54;;;;;;;21.42;15.60;;;;;;;15.04;86.51;98280.06;4183545;28;20075;-71
2022/08/14 05:32:55;;;;;;;17.50;13.52;;;;;;;15.07;86.44;98267.34;4183785;28;20625;-71
2022/08/14 05:34:58;;;;;;;20.70;14.32;;;;;;;15.16;84.65;98281.56;4184699;28;20037;-71
2022/08/14 05:37:00;;;;;;;19.92;14.27;;;;;;;15.25;84.63;98276.31;4185447;28;20071;-71
2022/08/14 05:39:01;;;;;;;20.05;14.00;;;;;;;15.30;85.51;98272.25;4185034;28;20076;-71
2022/08/14 05:41:07;;;;;;;21.73;14.55;;;;;;;15.35;86.31;98267.03;4185889;28;20037;-71
2022/08/14 05:43:08;;;;;;;21.27;14.48;;;;;;;15.41;86.07;98270.94;4184962;28;20311;-71
2022/08/14 05:45:09;;;;;;;17.23;13.82;;;;;;;15.42;84.43;98255.81;4186034;28;20055;-71
2022/08/14 05:47:09;;;;;;;22.75;15.75;;;;;;;15.52;85.52;98261.66;4185020;28;20044;-71
2022/08/14 05:49:10;;;;;;;16.77;12.57;;;;;;;15.60;83.63;98255.59;4184708;28;20045;-71
2022/08/14 05:51:11;;;;;;;14.77;13.13;;;;;;;15.68;84.31;98251.53;4186131;28;20045;-71
2022/08/14 05:53:11;;;;;;;19.02;13.93;;;;;;;15.74;84.33;98251.88;4186301;28;20040;-71
2022/08/14 05:55:12;;;;;;;15.80;12.50;;;;;;;15.82;84.00;98247.78;4183237;28;20044;-71
2022/08/14 05:57:12;;;;;;;17.02;11.88;;;;;;;15.91;83.57;98256.44;4185988;28;20080;-71
2022/08/14 05:59:12;;;;;;;17.48;13.43;;;;;;;15.99;83.06;98262.69;4185045;28;20037;-71
2022/08/14 06:01:13;;;;;;;18.15;13.30;;;;;;;16.08;82.67;98246.22;4184980;28;20036;-71
2022/08/14 06:03:15;;;;;;;15.50;12.30;;;;;;;16.17;81.35;98252.06;4183766;28;20292;-71
2022/08/14 06:05:16;;;;;;;16.02;13.07;;;;;;;16.28;80.45;98247.13;4184334;28;20119;-71
2022/08/14 06:07:16;;;;;;;14.48;12.73;;;;;;;16.37;81.77;98235.41;4185852;28;20172;-71
2022/08/14 06:09:17;;;;;;;15.32;12.55;;;;;;;16.49;82.37;98237.63;4182759;28;20040;-71
2022/08/14 06:11:17;;;;;;;18.10;14.88;;;;;;;16.57;82.64;98230.72;4182150;28;20131;-71
2022/08/14 06:13:18;;;;;;;20.60;14.00;;;;;;;16.68;82.48;98226.94;4179574;28;21578;-71
2022/08/14 06:15:19;;;;;;;16.20;14.10;;;;;;;16.74;82.72;98228.88;4183160;28;20540;-71
2022/08/14 06:17:19;;;;;;;18.80;14.38;;;;;;;16.85;82.36;98235.03;4184574;28;20086;-71
2022/08/14 06:19:20;;;;;;;16.65;13.35;;;;;;;16.92;82.32;98233.34;4185091;28;20075;-71
2022/08/14 06:21:21;;;;;;;15.65;13.00;;;;;;;16.99;80.82;98228.44;4185730;28;20040;-71
2022/08/14 06:23:22;;;;;;;15.60;12.73;;;;;;;17.09;79.09;98226.66;4184107;28;20044;-71
2022/08/14 06:25:22;;;;;;;17.98;14.18;;;;;;;17.25;80.37;98231.53;4184027;28;20135;-71
2022/08/14 06:27:22;;;;;;;13.75;12.25;;;;;;;17.34;80.39;98231.75;4186472;28;20040;-71
2022/08/14 06:29:23;;;;;;;16.55;13.13;;;;;;;17.43;79.12;98237.56;4183289;28;20036;-71
2022/08/14 06:31:23;;;;;;;19.60;15.00;;;;;;;17.54;80.96;98237.34;4186143;28;20097;-71
2022/08/14 06:33:24;;;;;;;16.00;14.23;;;;;;;17.63;81.42;98229.97;4184047;28;20041;-71
2022/08/14 06:35:24;;;;;;;15.38;13.05;;;;;;;17.75;78.35;98227.78;4185695;28;20036;-71
2022/08/14 06:37:26;;;;;;;14.55;13.00;;;;;;;17.90;75.94;98227.03;4186698;28;20384;-71
2022/08/14 06:39:26;;;;;;;16.35;12.77;;;;;;;18.06;76.90;98225.50;4185289;28;20033;-71
2022/08/14 06:41:27;;;;;;;15.27;12.98;;;;;;;18.17;79.06;98223.22;4184260;28;20443;-71
2022/08/14 06:43:27;;;;;;;15.30;13.45;;;;;;;18.30;77.33;98229.75;4183872;28;20477;-71
2022/08/14 06:45:28;;;;;;;14.68;12.95;;;;;;;18.40;77.26;98216.69;4184411;28;20153;-71
2022/08/14 06:47:32;;;;;;;16.17;13.45;;;;;;;18.58;77.86;98224.66;4184748;28;20074;-71
2022/08/14 06:49:32;;;;;;;15.10;12.88;;;;;;;18.69;74.66;98234.41;4183735;28;20389;-71
2022/08/14 06:51:34;;;;;;;17.67;12.38;;;;;;;18.84;70.90;98232.03;4184884;28;20036;-71
2022/08/14 06:53:35;;;;;;;14.85;12.73;;;;;;;18.95;72.91;98232.56;4185589;28;20488;-71
2022/08/14 06:55:35;;;;;;;16.33;13.48;;;;;;;19.09;76.82;98225.78;4185250;28;20051;-71
2022/08/14 06:57:40;;;;;;;13.50;12.15;;;;;;;19.19;72.27;98230.31;4185519;28;20106;-71
2022/08/14 06:59:41;;;;;;;13.70;12.30;;;;;;;19.32;71.08;98219.94;4184873;28;20040;-71
2022/08/14 07:06:19;;;;;;;14.02;12.63;;;;;;;19.55;72.95;98227.31;4185172;28;20052;-71
2022/08/14 07:08:21;;;;;;;16.38;12.50;;;;;;;19.61;72.58;98231.19;4183067;28;20036;-71
2022/08/14 07:10:21;;;;;;;14.32;12.63;;;;;;;19.69;74.51;98219.72;4185065;28;20135;-71
2022/08/14 07:12:22;;;;;;;15.57;13.90;;;;;;;19.71;72.32;98228.50;4184534;28;20370;-72
2022/08/14 07:14:22;;;;;;;14.45;12.38;;;;;;;19.79;74.42;98222.25;4185307;28;20052;-71
2022/08/14 07:16:23;;;;;;;14.15;12.45;;;;;;;19.90;71.99;98225.50;4184857;28;20040;-71
2022/08/14 07:18:26;;;;;;;14.75;12.35;;;;;;;20.02;72.83;98228.78;4184663;28;20082;-71
2022/08/14 07:20:27;;;;;;;15.02;13.48;;;;;;;20.06;74.56;98224.63;4185037;28;20047;-71
2022/08/14 07:22:27;;;;;;;13.80;12.38;;;;;;;20.13;74.54;98232.06;4184818;28;20041;-71
2022/08/14 07:24:27;;;;;;;14.30;12.32;;;;;;;20.18;70.86;98231.47;4104153;28;20434;-71
2022/08/14 07:26:28;;;;;;;13.85;12.45;;;;;;;20.30;71.06;98229.94;4184031;28;20057;-71
2022/08/14 07:28:32;;;;;;;13.90;11.70;;;;;;;20.42;71.67;98231.94;4185525;28;20133;-71
2022/08/14 07:30:32;;;;;;;13.98;12.10;;;;;;;20.52;70.42;98230.84;4183963;28;20097;-71
2022/08/14 07:32:33;;;;;;;14.20;12.70;;;;;;;20.67;73.51;98229.13;4185392;28;20040;-71
2022/08/14 07:34:33;;;;;;;14.00;11.57;;;;;;;20.75;73.27;98229.69;4185997;28;20041;-71
2022/08/14 07:36:34;;;;;;;15.25;12.57;;;;;;;20.87;73.29;98234.50;4185684;28;20049;-71
2022/08/14 07:38:34;;;;;;;12.25;10.80;;;;;;;20.94;70.94;98236.31;4184595;28;20472;-72
2022/08/14 07:40:35;;;;;;;13.07;11.73;;;;;;;21.03;70.96;98231.53;4184978;28;20111;-72
2022/08/14 07:42:35;;;;;;;13.18;11.45;;;;;;;21.21;72.07;98239.34;4184801;28;20767;-72
2022/08/14 07:44:37;;;;;;;15.02;11.57;;;;;;;21.35;71.57;98238.09;4185009;28;20045;-71
2022/08/14 07:46:37;;;;;;;16.33;12.85;;;;;;;21.46;70.80;98220.84;4185148;28;20547;-72
2022/08/14 07:48:39;;;;;;;14.45;12.82;;;;;;;21.55;70.69;98220.91;4185127;28;20119;-72
2022/08/14 07:50:39;;;;;;;14.85;11.63;;;;;;;21.64;70.64;98229.41;4185372;28;20331;-72
2022/08/14 07:52:45;;;;;;;13.88;11.60;;;;;;;21.75;70.62;98226.97;4187325;28;20507;-72
2022/08/14 07:54:45;;;;;;;12.13;10.63;;;;;;;21.90;70.27;98218.75;4188369;28;20299;-72
2022/08/14 07:56:46;;;;;;;13.30;10.00;;;;;;;22.08;68.91;98212.47;4187340;28;20465;-72
2022/08/14 07:58:46;;;;;;;11.52;10.23;;;;;;;22.07;65.08;98213.69;4187692;28;20306;-72
2022/08/14 08:00:46;;;;;;;13.38;11.00;;;;;;;22.13;65.05;98211.88;4187608;28;20087;-72
2022/08/14 08:02:51;;;;;;;12.55;10.60;;;;;;;22.21;65.05;98204.72;4187016;28;20110;-72
2022/08/14 08:04:55;;;;;;;12.35;9.73;;;;;;;22.27;67.32;98211.31;4187909;28;20047;-72
2022/08/14 08:06:55;;;;;;;10.63;9.48;;;;;;;22.53;67.12;98213.91;4186742;28;20028;-72
2022/08/14 08:08:58;;;;;;;11.50;9.50;;;;;;;22.66;65.74;98206.09;4187406;28;20141;-71
2022/08/14 08:11:00;;;;;;;10.48;9.23;;;;;;;22.65;63.21;98207.34;4188640;28;20137;-72
2022/08/14 08:13:13;;;;;;;9.80;8.80;;;;;;;22.63;63.41;98207.06;4187479;28;20045;-72
2022/08/14 08:15:13;;;;;;;12.48;8.38;;;;;;;22.78;64.62;98208.03;4188034;28;20041;-72
2022/08/14 08:17:14;;;;;;;9.60;8.60;;;;;;;22.90;63.60;98200.69;4187291;28;20037;-72
2022/08/14 08:19:17;;;;;;;12.00;8.70;;;;;;;23.09;63.73;98201.53;4186821;28;20052;-72
2022/08/14 08:21:18;;;;;;;10.52;8.23;;;;;;;23.19;63.36;98214.38;4187206;28;20484;-72
2022/08/14 08:23:21;;;;;;;9.10;8.20;;;;;;;23.28;62.92;98214.38;4187367;28;20207;-72
2022/08/14 08:25:23;;;;;;;9.95;7.93;;;;;;;23.35;62.20;98213.28;4187883;28;20554;-72
2022/08/14 08:27:23;;;;;;;9.32;8.35;;;;;;;23.35;61.20;98214.06;4186687;28;20029;-72
2022/08/14 08:29:23;;;;;;;10.15;9.05;;;;;;;23.38;60.54;98218.75;4187511;28;20083;-72
2022/08/14 08:31:25;;;;;;;8.73;7.85;;;;;;;23.46;61.31;98205.91;4187802;28;20444;-72
2022/08/14 08:33:28;;;;;;;10.13;8.13;;;;;;;23.55;61.25;98196.63;4186904;28;20170;-72
2022/08/14 08:35:33;;;;;;;8.45;7.65;;;;;;;23.65;60.79;98194.59;4187637;28;20037;-72
2022/08/14 08:37:34;;;;;;;11.05;8.35;;;;;;;23.68;60.47;98188.81;4188240;28;20131;-72
2022/08/14 08:39:48;;;;;;;9.15;7.63;;;;;;;23.81;60.68;98185.78;4187247;28;20149;-72
2022/08/14 08:41:49;;;;;;;10.52;7.82;;;;;;;23.93;59.38;98178.41;4187190;28;20492;-72
2022/08/14 08:43:49;;;;;;;8.55;7.45;;;;;;;24.07;59.06;98181.31;4187787;28;20052;-71
2022/08/14 08:45:54;;;;;;;8.52;7.63;;;;;;;24.20;58.50;98180.31;4186640;28;20060;-71
2022/08/14 08:47:54;;;;;;;8.45;7.38;;;;;;;24.23;58.16;98170.88;4186501;28;20048;-71
2022/08/14 08:49:55;;;;;;;9.40;7.88;;;;;;;24.35;57.64;98165.06;4187157;28;20044;-71
2022/08/14 08:52:03;;;;;;;8.73;7.57;;;;;;;24.37;56.59;98161.75;4186872;28;20120;-72
2022/08/14 08:54:04;;;;;;;8.23;7.40;;;;;;;24.46;57.44;98153.22;4187135;28;20098;-72
2022/08/14 08:56:05;;;;;;;9.02;8.07;;;;;;;24.50;57.03;98150.22;4186690;28;20447;-72
2022/08/14 08:58:10;;;;;;;9.57;7.60;;;;;;;24.58;56.59;98143.72;4186746;28;20057;-72
2022/08/14 09:00:16;;;;;;;11.45;8.05;;;;;;;24.72;56.82;98144.25;4187129;28;20021;-72
2022/08/14 09:02:17;;;;;;;10.38;8.88;;;;;;;24.84;56.43;98138.34;4184183;28;20028;-72
2022/08/14 09:04:19;;;;;;;8.43;7.63;;;;;;;24.85;55.90;98131.44;4187798;28;20669;-72
2022/08/14 09:06:19;;;;;;;9.15;7.70;;;;;;;24.94;55.78;98134.19;4186013;28;20036;-72
2022/08/14 09:08:24;;;;;;;10.23;7.82;;;;;;;24.89;54.96;98128.41;4186984;28;20048;-72
2022/08/14 09:10:24;;;;;;;9.13;7.45;;;;;;;25.00;54.93;98137.13;4185163;28;20040;-72
2022/08/14 09:12:25;;;;;;;8.68;7.72;;;;;;;24.97;54.39;98128.81;4187449;28;20048;-72
2022/08/14 09:14:28;;;;;;;8.85;7.53;;;;;;;24.98;54.83;98131.16;4187182;28;20044;-72
2022/08/14 09:16:28;;;;;;;8.48;7.65;;;;;;;25.10;54.83;98130.16;4187327;28;20032;-72
2022/08/14 09:18:29;;;;;;;8.23;7.43;;;;;;;25.13;54.13;98117.84;4186056;28;20042;-72
2022/08/14 09:20:30;;;;;;;9.88;7.80;;;;;;;25.24;53.96;98128.63;4185881;28;20311;-71
2022/08/14 09:22:31;;;;;;;8.05;6.65;;;;;;;25.34;53.20;98124.44;4187035;28;20045;-71
2022/08/14 09:24:32;;;;;;;7.47;6.63;;;;;;;25.30;53.56;98129.50;4185914;28;20048;-71
2022/08/14 09:26:32;;;;;;;7.68;6.85;;;;;;;25.39;52.91;98128.63;4185656;28;20037;-71
2022/08/14 09:28:33;;;;;;;7.78;7.00;;;;;;;25.35;52.36;98136.53;4184641;28;20051;-71
2022/08/14 09:30:39;;;;;;;8.45;6.97;;;;;;;25.31;52.77;98131.06;4185992;28;20126;-71
2022/08/14 09:33:00;;;;;;;7.85;7.05;;;;;;;25.41;52.58;98126.88;4185050;28;20097;-71
2022/08/14 09:35:04;;;;;;;7.38;6.47;;;;;;;25.53;52.11;98125.03;4186513;28;20473;-72
2022/08/14 09:37:32;;;;;;;7.47;6.22;;;;;;;25.64;51.37;98119.53;4186617;28;20045;-72
2022/08/14 09:40:10;;;;;;;10.23;7.07;;;;;;;25.80;50.64;98115.47;4186919;28;20369;-72